sensor_id;sensor_type;location;lat;lon;timestamp;temperature;humidity
7341;DHT22;6870;50.944;6.932;2024-03-02T00:01:10;18.70;42.20
7341;DHT22;6870;50.944;6.932;2024-03-02T00:03:38;18.40;42.50
7341;DHT22;6870;50.944;6.932;2024-03-02T00:06:07;18.50;42.60
7341;DHT22;6870;50.944;6.932;2024-03-02T00:08:35;18.60;42.30
7341;DHT22;6870;50.944;6.932;2024-03-02T00:11:03;18.80;43.10
7341;DHT22;6870;50.944;6.932;2024-03-02T00:13:32;18.50;42.90
7341;DHT22;6870;50.944;6.932;2024-03-02T00:16:03;18.20;42.80
7341;DHT22;6870;50.944;6.932;2024-03-02T00:18:34;18.20;42.60
7341;DHT22;6870;50.944;6.932;2024-03-02T00:21:03;18.20;43.00
7341;DHT22;6870;50.944;6.932;2024-03-02T00:23:36;18.70;43.40
7341;DHT22;6870;50.944;6.932;2024-03-02T00:26:05;18.60;43.30
7341;DHT22;6870;50.944;6.932;2024-03-02T00:28:36;18.20;43.00
7341;DHT22;6870;50.944;6.932;2024-03-02T00:31:07;18.50;43.50
7341;DHT22;6870;50.944;6.932;2024-03-02T00:33:37;18.60;43.80
7341;DHT22;6870;50.944;6.932;2024-03-02T00:36:09;18.30;43.60
7341;DHT22;6870;50.944;6.932;2024-03-02T00:38:44;18.30;43.50
7341;DHT22;6870;50.944;6.932;2024-03-02T00:41:17;18.60;43.30
7341;DHT22;6870;50.944;6.932;2024-03-02T00:43:57;18.70;43.90
7341;DHT22;6870;50.944;6.932;2024-03-02T00:46:29;18.50;43.80
7341;DHT22;6870;50.944;6.932;2024-03-02T00:49:00;18.40;43.20
7341;DHT22;6870;50.944;6.932;2024-03-02T00:51:30;18.40;43.20
7341;DHT22;6870;50.944;6.932;2024-03-02T00:54:00;18.30;44.00
7341;DHT22;6870;50.944;6.932;2024-03-02T00:56:31;18.60;44.30
7341;DHT22;6870;50.944;6.932;2024-03-02T00:59:00;18.70;44.20
7341;DHT22;6870;50.944;6.932;2024-03-02T01:01:30;18.40;44.20
7341;DHT22;6870;50.944;6.932;2024-03-02T01:03:58;18.50;43.20
7341;DHT22;6870;50.944;6.932;2024-03-02T01:06:26;18.30;43.30
7341;DHT22;6870;50.944;6.932;2024-03-02T01:08:54;18.70;44.50
7341;DHT22;6870;50.944;6.932;2024-03-02T01:11:22;18.70;43.70
7341;DHT22;6870;50.944;6.932;2024-03-02T01:13:51;18.50;43.70
7341;DHT22;6870;50.944;6.932;2024-03-02T01:16:20;18.30;43.20
7341;DHT22;6870;50.944;6.932;2024-03-02T01:18:49;18.60;44.50
7341;DHT22;6870;50.944;6.932;2024-03-02T01:21:18;18.50;44.70
7341;DHT22;6870;50.944;6.932;2024-03-02T01:23:46;18.80;44.70
7341;DHT22;6870;50.944;6.932;2024-03-02T01:26:14;18.50;43.80
7341;DHT22;6870;50.944;6.932;2024-03-02T01:28:42;18.60;44.60
7341;DHT22;6870;50.944;6.932;2024-03-02T01:31:10;18.60;45.60
7341;DHT22;6870;50.944;6.932;2024-03-02T01:33:38;18.40;44.50
7341;DHT22;6870;50.944;6.932;2024-03-02T01:36:08;18.80;45.40
7341;DHT22;6870;50.944;6.932;2024-03-02T01:38:36;18.30;45.10
7341;DHT22;6870;50.944;6.932;2024-03-02T01:41:04;18.30;45.20
7341;DHT22;6870;50.944;6.932;2024-03-02T01:43:32;18.20;45.70
7341;DHT22;6870;50.944;6.932;2024-03-02T01:46:01;18.30;45.00
7341;DHT22;6870;50.944;6.932;2024-03-02T01:48:29;18.20;44.80
7341;DHT22;6870;50.944;6.932;2024-03-02T01:50:57;18.50;45.00
7341;DHT22;6870;50.944;6.932;2024-03-02T01:53:26;18.20;45.10
7341;DHT22;6870;50.944;6.932;2024-03-02T01:55:55;18.20;45.70
7341;DHT22;6870;50.944;6.932;2024-03-02T01:58:23;18.70;45.10
7341;DHT22;6870;50.944;6.932;2024-03-02T02:00:51;18.50;45.90
7341;DHT22;6870;50.944;6.932;2024-03-02T02:03:19;18.50;46.00
7341;DHT22;6870;50.944;6.932;2024-03-02T02:05:47;18.50;46.50
7341;DHT22;6870;50.944;6.932;2024-03-02T02:08:15;18.40;45.60
7341;DHT22;6870;50.944;6.932;2024-03-02T02:10:44;18.20;46.30
7341;DHT22;6870;50.944;6.932;2024-03-02T02:13:13;18.60;45.50
7341;DHT22;6870;50.944;6.932;2024-03-02T02:15:41;18.30;46.60
7341;DHT22;6870;50.944;6.932;2024-03-02T02:18:09;18.20;46.30
7341;DHT22;6870;50.944;6.932;2024-03-02T02:20:37;18.10;45.90
7341;DHT22;6870;50.944;6.932;2024-03-02T02:23:07;18.30;46.00
7341;DHT22;6870;50.944;6.932;2024-03-02T02:25:37;18.40;45.50
7341;DHT22;6870;50.944;6.932;2024-03-02T02:28:05;18.50;45.90
7341;DHT22;6870;50.944;6.932;2024-03-02T02:30:33;18.10;46.20
7341;DHT22;6870;50.944;6.932;2024-03-02T02:33:01;18.40;46.50
7341;DHT22;6870;50.944;6.932;2024-03-02T02:35:30;18.50;46.60
7341;DHT22;6870;50.944;6.932;2024-03-02T02:37:58;18.50;46.50
7341;DHT22;6870;50.944;6.932;2024-03-02T02:40:28;18.80;46.00
7341;DHT22;6870;50.944;6.932;2024-03-02T02:42:57;18.40;45.90
7341;DHT22;6870;50.944;6.932;2024-03-02T02:45:25;18.50;46.70
7341;DHT22;6870;50.944;6.932;2024-03-02T02:47:54;18.20;45.80
7341;DHT22;6870;50.944;6.932;2024-03-02T02:50:22;18.40;46.50
7341;DHT22;6870;50.944;6.932;2024-03-02T02:52:50;18.40;45.70
7341;DHT22;6870;50.944;6.932;2024-03-02T02:55:18;18.40;46.10
7341;DHT22;6870;50.944;6.932;2024-03-02T02:57:47;18.40;46.50
7341;DHT22;6870;50.944;6.932;2024-03-02T03:00:16;18.50;46.60
7341;DHT22;6870;50.944;6.932;2024-03-02T03:02:48;18.40;46.50
7341;DHT22;6870;50.944;6.932;2024-03-02T03:05:18;18.60;46.70
7341;DHT22;6870;50.944;6.932;2024-03-02T03:07:46;18.60;46.70
7341;DHT22;6870;50.944;6.932;2024-03-02T03:10:17;18.20;45.90
7341;DHT22;6870;50.944;6.932;2024-03-02T03:12:49;18.50;46.10
7341;DHT22;6870;50.944;6.932;2024-03-02T03:15:17;18.20;45.80
7341;DHT22;6870;50.944;6.932;2024-03-02T03:17:45;18.40;45.90
7341;DHT22;6870;50.944;6.932;2024-03-02T03:20:14;18.40;46.80
7341;DHT22;6870;50.944;6.932;2024-03-02T03:22:42;18.20;46.10
7341;DHT22;6870;50.944;6.932;2024-03-02T03:25:10;18.30;46.00
7341;DHT22;6870;50.944;6.932;2024-03-02T03:27:39;18.60;46.60
7341;DHT22;6870;50.944;6.932;2024-03-02T03:30:10;18.20;46.20
7341;DHT22;6870;50.944;6.932;2024-03-02T03:32:39;18.60;47.40
7341;DHT22;6870;50.944;6.932;2024-03-02T03:35:07;18.60;46.60
7341;DHT22;6870;50.944;6.932;2024-03-02T03:37:36;18.20;46.50
7341;DHT22;6870;50.944;6.932;2024-03-02T03:40:05;18.50;47.10
7341;DHT22;6870;50.944;6.932;2024-03-02T03:42:37;18.20;47.30
7341;DHT22;6870;50.944;6.932;2024-03-02T03:45:08;18.50;47.50
7341;DHT22;6870;50.944;6.932;2024-03-02T03:47:37;18.20;46.80
7341;DHT22;6870;50.944;6.932;2024-03-02T03:50:06;18.20;47.50
7341;DHT22;6870;50.944;6.932;2024-03-02T03:52:35;18.20;47.50
7341;DHT22;6870;50.944;6.932;2024-03-02T03:55:03;18.50;47.70
7341;DHT22;6870;50.944;6.932;2024-03-02T03:57:33;18.70;48.10
7341;DHT22;6870;50.944;6.932;2024-03-02T04:00:01;18.50;48.00
7341;DHT22;6870;50.944;6.932;2024-03-02T04:02:31;18.30;47.90
7341;DHT22;6870;50.944;6.932;2024-03-02T04:04:59;18.30;48.00
7341;DHT22;6870;50.944;6.932;2024-03-02T04:07:27;18.30;48.00
7341;DHT22;6870;50.944;6.932;2024-03-02T04:09:55;18.30;47.70
7341;DHT22;6870;50.944;6.932;2024-03-02T04:12:24;18.60;48.40
7341;DHT22;6870;50.944;6.932;2024-03-02T04:14:52;18.50;47.70
7341;DHT22;6870;50.944;6.932;2024-03-02T04:17:20;18.30;48.20
7341;DHT22;6870;50.944;6.932;2024-03-02T04:19:49;18.30;47.50
7341;DHT22;6870;50.944;6.932;2024-03-02T04:22:17;18.30;47.80
7341;DHT22;6870;50.944;6.932;2024-03-02T04:24:51;18.00;47.70
7341;DHT22;6870;50.944;6.932;2024-03-02T04:27:19;18.40;48.60
7341;DHT22;6870;50.944;6.932;2024-03-02T04:29:48;18.10;48.90
7341;DHT22;6870;50.944;6.932;2024-03-02T04:32:16;18.50;49.10
7341;DHT22;6870;50.944;6.932;2024-03-02T04:34:46;18.10;48.50
7341;DHT22;6870;50.944;6.932;2024-03-02T04:37:16;18.20;48.20
7341;DHT22;6870;50.944;6.932;2024-03-02T04:39:44;18.40;49.30
7341;DHT22;6870;50.944;6.932;2024-03-02T04:42:12;18.50;49.80
7341;DHT22;6870;50.944;6.932;2024-03-02T04:44:40;18.10;49.50
7341;DHT22;6870;50.944;6.932;2024-03-02T04:47:08;18.10;49.20
7341;DHT22;6870;50.944;6.932;2024-03-02T04:49:36;18.00;49.40
7341;DHT22;6870;50.944;6.932;2024-03-02T04:52:05;18.20;49.40
7341;DHT22;6870;50.944;6.932;2024-03-02T04:54:34;18.00;49.40
7341;DHT22;6870;50.944;6.932;2024-03-02T04:57:23;18.20;49.00
7341;DHT22;6870;50.944;6.932;2024-03-02T04:59:50;18.20;49.60
7341;DHT22;6870;50.944;6.932;2024-03-02T05:02:18;18.50;49.40
7341;DHT22;6870;50.944;6.932;2024-03-02T05:04:46;18.20;49.90
7341;DHT22;6870;50.944;6.932;2024-03-02T05:07:15;18.10;49.00
7341;DHT22;6870;50.944;6.932;2024-03-02T05:09:44;18.40;49.50
7341;DHT22;6870;50.944;6.932;2024-03-02T05:12:12;18.10;49.50
7341;DHT22;6870;50.944;6.932;2024-03-02T05:15:02;18.20;50.10
7341;DHT22;6870;50.944;6.932;2024-03-02T05:17:30;18.00;50.70
7341;DHT22;6870;50.944;6.932;2024-03-02T05:19:58;18.00;49.80
7341;DHT22;6870;50.944;6.932;2024-03-02T05:22:26;18.30;50.60
7341;DHT22;6870;50.944;6.932;2024-03-02T05:24:56;18.30;50.70
7341;DHT22;6870;50.944;6.932;2024-03-02T05:27:26;18.30;50.80
7341;DHT22;6870;50.944;6.932;2024-03-02T05:29:54;18.20;50.80
7341;DHT22;6870;50.944;6.932;2024-03-02T05:32:22;18.20;50.80
7341;DHT22;6870;50.944;6.932;2024-03-02T05:34:50;18.10;50.10
7341;DHT22;6870;50.944;6.932;2024-03-02T05:37:18;18.10;50.90
7341;DHT22;6870;50.944;6.932;2024-03-02T05:39:46;18.00;50.50
7341;DHT22;6870;50.944;6.932;2024-03-02T05:42:16;18.00;50.20
7341;DHT22;6870;50.944;6.932;2024-03-02T05:44:44;18.20;51.10
7341;DHT22;6870;50.944;6.932;2024-03-02T05:47:12;17.90;50.20
7341;DHT22;6870;50.944;6.932;2024-03-02T05:49:40;18.20;50.70
7341;DHT22;6870;50.944;6.932;2024-03-02T05:52:09;18.10;50.90
7341;DHT22;6870;50.944;6.932;2024-03-02T05:54:38;18.00;50.90
7341;DHT22;6870;50.944;6.932;2024-03-02T05:57:06;18.00;51.00
7341;DHT22;6870;50.944;6.932;2024-03-02T05:59:55;18.20;51.30
7341;DHT22;6870;50.944;6.932;2024-03-02T06:02:24;18.10;51.80
7341;DHT22;6870;50.944;6.932;2024-03-02T06:04:54;18.50;52.20
7341;DHT22;6870;50.944;6.932;2024-03-02T06:07:23;18.30;52.00
7341;DHT22;6870;50.944;6.932;2024-03-02T06:09:52;18.50;52.30
7341;DHT22;6870;50.944;6.932;2024-03-02T06:12:20;18.10;51.40
7341;DHT22;6870;50.944;6.932;2024-03-02T06:14:48;18.20;52.00
7341;DHT22;6870;50.944;6.932;2024-03-02T06:17:17;18.60;52.30
7341;DHT22;6870;50.944;6.932;2024-03-02T06:19:45;18.30;52.10
7341;DHT22;6870;50.944;6.932;2024-03-02T06:22:14;18.10;52.00
7341;DHT22;6870;50.944;6.932;2024-03-02T06:24:42;18.30;51.80
7341;DHT22;6870;50.944;6.932;2024-03-02T06:27:10;18.10;52.00
7341;DHT22;6870;50.944;6.932;2024-03-02T06:29:38;18.30;52.30
7341;DHT22;6870;50.944;6.932;2024-03-02T06:32:06;18.00;51.60
7341;DHT22;6870;50.944;6.932;2024-03-02T06:34:36;18.20;52.60
7341;DHT22;6870;50.944;6.932;2024-03-02T06:37:04;18.40;52.90
7341;DHT22;6870;50.944;6.932;2024-03-02T06:39:32;18.40;52.30
7341;DHT22;6870;50.944;6.932;2024-03-02T06:42:01;18.30;52.30
7341;DHT22;6870;50.944;6.932;2024-03-02T06:44:29;18.20;52.50
7341;DHT22;6870;50.944;6.932;2024-03-02T06:46:58;18.20;52.50
7341;DHT22;6870;50.944;6.932;2024-03-02T06:49:26;18.30;52.50
7341;DHT22;6870;50.944;6.932;2024-03-02T06:51:55;18.50;52.60
7341;DHT22;6870;50.944;6.932;2024-03-02T06:54:23;18.50;52.00
7341;DHT22;6870;50.944;6.932;2024-03-02T06:56:51;18.20;52.30
7341;DHT22;6870;50.944;6.932;2024-03-02T06:59:19;18.60;52.30
7341;DHT22;6870;50.944;6.932;2024-03-02T07:01:47;18.40;52.20
7341;DHT22;6870;50.944;6.932;2024-03-02T07:04:15;18.20;51.80
7341;DHT22;6870;50.944;6.932;2024-03-02T07:06:43;18.10;52.00
7341;DHT22;6870;50.944;6.932;2024-03-02T07:09:12;18.10;51.40
7341;DHT22;6870;50.944;6.932;2024-03-02T07:11:40;18.00;51.70
7341;DHT22;6870;50.944;6.932;2024-03-02T07:14:08;18.30;51.60
7341;DHT22;6870;50.944;6.932;2024-03-02T07:16:37;18.20;51.40
7341;DHT22;6870;50.944;6.932;2024-03-02T07:19:07;18.20;51.80
7341;DHT22;6870;50.944;6.932;2024-03-02T07:21:35;18.50;52.20
7341;DHT22;6870;50.944;6.932;2024-03-02T07:24:03;18.50;51.00
7341;DHT22;6870;50.944;6.932;2024-03-02T07:26:32;18.40;50.40
7341;DHT22;6870;50.944;6.932;2024-03-02T07:29:03;18.60;49.30
7341;DHT22;6870;50.944;6.932;2024-03-02T07:31:31;18.30;46.50
7341;DHT22;6870;50.944;6.932;2024-03-02T07:33:59;18.60;45.40
7341;DHT22;6870;50.944;6.932;2024-03-02T07:36:27;18.50;43.40
7341;DHT22;6870;50.944;6.932;2024-03-02T07:38:55;18.30;42.90
7341;DHT22;6870;50.944;6.932;2024-03-02T07:41:24;18.10;40.90
7341;DHT22;6870;50.944;6.932;2024-03-02T07:43:53;18.20;40.00
7341;DHT22;6870;50.944;6.932;2024-03-02T07:46:21;18.10;38.80
7341;DHT22;6870;50.944;6.932;2024-03-02T07:48:49;18.10;37.80
7341;DHT22;6870;50.944;6.932;2024-03-02T07:51:18;18.50;37.20
7341;DHT22;6870;50.944;6.932;2024-03-02T07:53:46;18.10;36.90
7341;DHT22;6870;50.944;6.932;2024-03-02T07:56:14;18.40;36.40
7341;DHT22;6870;50.944;6.932;2024-03-02T07:58:48;18.30;35.50
7341;DHT22;6870;50.944;6.932;2024-03-02T08:01:18;18.20;33.90
7341;DHT22;6870;50.944;6.932;2024-03-02T08:03:46;18.30;33.90
7341;DHT22;6870;50.944;6.932;2024-03-02T08:06:16;18.10;33.00
7341;DHT22;6870;50.944;6.932;2024-03-02T08:08:47;18.00;32.70
7341;DHT22;6870;50.944;6.932;2024-03-02T08:11:15;18.20;32.80
7341;DHT22;6870;50.944;6.932;2024-03-02T08:13:43;18.20;31.50
7341;DHT22;6870;50.944;6.932;2024-03-02T08:16:11;18.20;31.20
7341;DHT22;6870;50.944;6.932;2024-03-02T08:18:41;18.30;31.40
7341;DHT22;6870;50.944;6.932;2024-03-02T08:21:09;18.10;30.90
7341;DHT22;6870;50.944;6.932;2024-03-02T08:23:37;18.50;30.60
7341;DHT22;6870;50.944;6.932;2024-03-02T08:26:10;18.50;30.30
7341;DHT22;6870;50.944;6.932;2024-03-02T08:28:39;18.80;30.10
7341;DHT22;6870;50.944;6.932;2024-03-02T08:31:08;18.60;29.80
7341;DHT22;6870;50.944;6.932;2024-03-02T08:33:36;18.90;29.80
7341;DHT22;6870;50.944;6.932;2024-03-02T08:36:06;18.80;29.50
7341;DHT22;6870;50.944;6.932;2024-03-02T08:38:36;18.60;28.70
7341;DHT22;6870;50.944;6.932;2024-03-02T08:41:04;18.60;28.20
7341;DHT22;6870;50.944;6.932;2024-03-02T08:43:32;18.80;27.70
7341;DHT22;6870;50.944;6.932;2024-03-02T08:46:01;18.40;27.40
7341;DHT22;6870;50.944;6.932;2024-03-02T08:48:29;18.70;27.90
7341;DHT22;6870;50.944;6.932;2024-03-02T08:50:57;18.50;27.40
7341;DHT22;6870;50.944;6.932;2024-03-02T08:53:27;19.00;27.10
7341;DHT22;6870;50.944;6.932;2024-03-02T08:55:55;18.50;27.30
7341;DHT22;6870;50.944;6.932;2024-03-02T08:58:25;18.80;27.10
7341;DHT22;6870;50.944;6.932;2024-03-02T09:00:54;18.60;26.70
7341;DHT22;6870;50.944;6.932;2024-03-02T09:03:22;18.90;26.60
7341;DHT22;6870;50.944;6.932;2024-03-02T09:05:50;19.00;27.00
7341;DHT22;6870;50.944;6.932;2024-03-02T09:08:18;18.90;26.20
7341;DHT22;6870;50.944;6.932;2024-03-02T09:10:47;18.80;26.90
7341;DHT22;6870;50.944;6.932;2024-03-02T09:13:15;18.80;26.80
7341;DHT22;6870;50.944;6.932;2024-03-02T09:15:44;19.20;26.40
7341;DHT22;6870;50.944;6.932;2024-03-02T09:18:12;19.10;25.70
7341;DHT22;6870;50.944;6.932;2024-03-02T09:20:40;18.90;25.70
7341;DHT22;6870;50.944;6.932;2024-03-02T09:23:08;19.10;25.30
7341;DHT22;6870;50.944;6.932;2024-03-02T09:25:36;19.10;25.80
7341;DHT22;6870;50.944;6.932;2024-03-02T09:28:06;19.10;26.30
7341;DHT22;6870;50.944;6.932;2024-03-02T09:30:35;19.00;26.30
7341;DHT22;6870;50.944;6.932;2024-03-02T09:33:03;19.30;24.40
7341;DHT22;6870;50.944;6.932;2024-03-02T09:35:35;19.20;26.60
7341;DHT22;6870;50.944;6.932;2024-03-02T09:38:03;19.20;26.00
7341;DHT22;6870;50.944;6.932;2024-03-02T09:40:32;19.00;26.10
7341;DHT22;6870;50.944;6.932;2024-03-02T09:43:00;19.30;25.90
7341;DHT22;6870;50.944;6.932;2024-03-02T09:45:30;19.30;26.00
7341;DHT22;6870;50.944;6.932;2024-03-02T09:47:58;19.20;25.30
7341;DHT22;6870;50.944;6.932;2024-03-02T09:50:27;19.10;24.50
7341;DHT22;6870;50.944;6.932;2024-03-02T09:52:55;19.10;25.00
7341;DHT22;6870;50.944;6.932;2024-03-02T09:55:23;19.20;26.00
7341;DHT22;6870;50.944;6.932;2024-03-02T09:57:53;19.20;25.10
7341;DHT22;6870;50.944;6.932;2024-03-02T10:00:21;19.10;26.20
7341;DHT22;6870;50.944;6.932;2024-03-02T10:02:50;19.20;26.70
7341;DHT22;6870;50.944;6.932;2024-03-02T10:05:25;19.50;27.20
7341;DHT22;6870;50.944;6.932;2024-03-02T10:08:01;19.50;26.70
7341;DHT22;6870;50.944;6.932;2024-03-02T10:10:37;19.60;27.40
7341;DHT22;6870;50.944;6.932;2024-03-02T10:13:07;19.60;27.40
7341;DHT22;6870;50.944;6.932;2024-03-02T10:15:37;19.40;26.90
7341;DHT22;6870;50.944;6.932;2024-03-02T10:18:10;19.60;26.40
7341;DHT22;6870;50.944;6.932;2024-03-02T10:20:40;19.90;27.20
7341;DHT22;6870;50.944;6.932;2024-03-02T10:23:11;19.90;26.80
7341;DHT22;6870;50.944;6.932;2024-03-02T10:25:40;19.80;26.40
7341;DHT22;6870;50.944;6.932;2024-03-02T10:28:23;20.00;27.10
7341;DHT22;6870;50.944;6.932;2024-03-02T10:30:51;20.10;27.00
7341;DHT22;6870;50.944;6.932;2024-03-02T10:33:22;19.80;26.70
7341;DHT22;6870;50.944;6.932;2024-03-02T10:35:50;20.40;27.20
7341;DHT22;6870;50.944;6.932;2024-03-02T10:38:18;20.20;27.30
7341;DHT22;6870;50.944;6.932;2024-03-02T10:40:47;20.50;26.90
7341;DHT22;6870;50.944;6.932;2024-03-02T10:43:16;20.10;26.60
7341;DHT22;6870;50.944;6.932;2024-03-02T10:45:52;20.50;26.80
7341;DHT22;6870;50.944;6.932;2024-03-02T10:48:21;20.50;27.20
7341;DHT22;6870;50.944;6.932;2024-03-02T10:50:50;20.70;27.30
7341;DHT22;6870;50.944;6.932;2024-03-02T10:53:19;20.40;27.00
7341;DHT22;6870;50.944;6.932;2024-03-02T10:55:52;20.60;27.70
7341;DHT22;6870;50.944;6.932;2024-03-02T10:58:33;20.70;27.40
7341;DHT22;6870;50.944;6.932;2024-03-02T11:01:03;20.30;27.90
7341;DHT22;6870;50.944;6.932;2024-03-02T11:03:35;20.80;28.40
7341;DHT22;6870;50.944;6.932;2024-03-02T11:06:07;20.40;28.40
7341;DHT22;6870;50.944;6.932;2024-03-02T11:08:38;20.40;28.50
7341;DHT22;6870;50.944;6.932;2024-03-02T11:11:13;20.80;28.50
7341;DHT22;6870;50.944;6.932;2024-03-02T11:13:49;20.80;28.80
7341;DHT22;6870;50.944;6.932;2024-03-02T11:16:26;20.80;29.10
7341;DHT22;6870;50.944;6.932;2024-03-02T11:18:58;20.40;28.90
7341;DHT22;6870;50.944;6.932;2024-03-02T11:21:27;20.50;29.10
7341;DHT22;6870;50.944;6.932;2024-03-02T11:23:55;20.90;29.10
7341;DHT22;6870;50.944;6.932;2024-03-02T11:26:23;20.70;29.00
7341;DHT22;6870;50.944;6.932;2024-03-02T11:28:51;21.10;29.40
7341;DHT22;6870;50.944;6.932;2024-03-02T11:31:19;20.80;29.00
7341;DHT22;6870;50.944;6.932;2024-03-02T11:33:47;20.90;29.20
7341;DHT22;6870;50.944;6.932;2024-03-02T11:36:17;20.80;28.90
7341;DHT22;6870;50.944;6.932;2024-03-02T11:38:45;20.70;28.90
7341;DHT22;6870;50.944;6.932;2024-03-02T11:41:14;20.90;29.30
7341;DHT22;6870;50.944;6.932;2024-03-02T11:43:42;21.00;29.00
7341;DHT22;6870;50.944;6.932;2024-03-02T11:46:12;21.10;29.50
7341;DHT22;6870;50.944;6.932;2024-03-02T11:48:40;20.80;29.30
7341;DHT22;6870;50.944;6.932;2024-03-02T11:51:08;21.00;29.20
7341;DHT22;6870;50.944;6.932;2024-03-02T11:53:39;20.90;29.00
7341;DHT22;6870;50.944;6.932;2024-03-02T11:56:09;21.20;29.50
7341;DHT22;6870;50.944;6.932;2024-03-02T11:58:39;21.20;29.70
7341;DHT22;6870;50.944;6.932;2024-03-02T12:01:10;21.10;29.20
7341;DHT22;6870;50.944;6.932;2024-03-02T12:03:38;21.10;29.50
7341;DHT22;6870;50.944;6.932;2024-03-02T12:06:07;20.90;29.30
7341;DHT22;6870;50.944;6.932;2024-03-02T12:08:35;20.80;28.80
7341;DHT22;6870;50.944;6.932;2024-03-02T12:11:05;20.90;28.50
7341;DHT22;6870;50.944;6.932;2024-03-02T12:13:34;21.00;28.10
7341;DHT22;6870;50.944;6.932;2024-03-02T12:16:02;20.90;27.50
7341;DHT22;6870;50.944;6.932;2024-03-02T12:18:31;20.70;27.60
7341;DHT22;6870;50.944;6.932;2024-03-02T12:20:59;20.80;26.90
7341;DHT22;6870;50.944;6.932;2024-03-02T12:23:29;20.90;26.90
7341;DHT22;6870;50.944;6.932;2024-03-02T12:25:57;21.10;26.80
7341;DHT22;6870;50.944;6.932;2024-03-02T12:28:27;20.90;26.90
7341;DHT22;6870;50.944;6.932;2024-03-02T12:30:57;21.00;26.50
7341;DHT22;6870;50.944;6.932;2024-03-02T12:33:25;20.80;26.10
7341;DHT22;6870;50.944;6.932;2024-03-02T12:35:54;21.30;26.40
7341;DHT22;6870;50.944;6.932;2024-03-02T12:38:22;20.90;26.60
7341;DHT22;6870;50.944;6.932;2024-03-02T12:40:52;21.30;26.70
7341;DHT22;6870;50.944;6.932;2024-03-02T12:43:20;20.80;26.80
7341;DHT22;6870;50.944;6.932;2024-03-02T12:45:52;20.90;26.40
7341;DHT22;6870;50.944;6.932;2024-03-02T12:48:22;21.00;26.50
7341;DHT22;6870;50.944;6.932;2024-03-02T12:50:50;20.90;26.30
7341;DHT22;6870;50.944;6.932;2024-03-02T12:53:19;21.20;26.40
7341;DHT22;6870;50.944;6.932;2024-03-02T12:55:49;21.00;26.80
7341;DHT22;6870;50.944;6.932;2024-03-02T12:58:19;21.00;26.70
7341;DHT22;6870;50.944;6.932;2024-03-02T13:00:48;21.20;27.40
7341;DHT22;6870;50.944;6.932;2024-03-02T13:03:19;21.00;27.50
7341;DHT22;6870;50.944;6.932;2024-03-02T13:05:49;21.00;28.30
7341;DHT22;6870;50.944;6.932;2024-03-02T13:08:18;21.00;27.80
7341;DHT22;6870;50.944;6.932;2024-03-02T13:10:46;21.00;28.50
7341;DHT22;6870;50.944;6.932;2024-03-02T13:13:14;21.30;28.90
7341;DHT22;6870;50.944;6.932;2024-03-02T13:15:42;21.00;28.80
7341;DHT22;6870;50.944;6.932;2024-03-02T13:18:11;20.80;28.70
7341;DHT22;6870;50.944;6.932;2024-03-02T13:20:41;21.10;28.90
7341;DHT22;6870;50.944;6.932;2024-03-02T13:23:09;20.90;28.90
7341;DHT22;6870;50.944;6.932;2024-03-02T13:25:37;21.00;29.30
7341;DHT22;6870;50.944;6.932;2024-03-02T13:28:06;21.10;29.20
7341;DHT22;6870;50.944;6.932;2024-03-02T13:30:34;20.80;29.40
7341;DHT22;6870;50.944;6.932;2024-03-02T13:33:02;21.00;29.50
7341;DHT22;6870;50.944;6.932;2024-03-02T13:35:31;21.20;29.90
7341;DHT22;6870;50.944;6.932;2024-03-02T13:38:00;20.70;29.20
7341;DHT22;6870;50.944;6.932;2024-03-02T13:40:28;21.00;29.40
7341;DHT22;6870;50.944;6.932;2024-03-02T13:43:02;20.60;29.10
7341;DHT22;6870;50.944;6.932;2024-03-02T13:45:30;20.80;29.40
7341;DHT22;6870;50.944;6.932;2024-03-02T13:47:58;20.80;29.10
7341;DHT22;6870;50.944;6.932;2024-03-02T13:50:28;21.00;29.00
7341;DHT22;6870;50.944;6.932;2024-03-02T13:52:57;21.10;29.20
7341;DHT22;6870;50.944;6.932;2024-03-02T13:55:26;21.00;29.30
7341;DHT22;6870;50.944;6.932;2024-03-02T13:57:54;21.00;29.40
7341;DHT22;6870;50.944;6.932;2024-03-02T14:00:22;21.10;29.60
7341;DHT22;6870;50.944;6.932;2024-03-02T14:02:50;20.80;29.00
7341;DHT22;6870;50.944;6.932;2024-03-02T14:05:18;21.20;29.70
7341;DHT22;6870;50.944;6.932;2024-03-02T14:07:46;21.10;29.40
7341;DHT22;6870;50.944;6.932;2024-03-02T14:10:15;20.90;29.20
7341;DHT22;6870;50.944;6.932;2024-03-02T14:12:44;20.80;29.40
7341;DHT22;6870;50.944;6.932;2024-03-02T14:15:12;20.90;29.60
7341;DHT22;6870;50.944;6.932;2024-03-02T14:17:43;21.10;29.70
7341;DHT22;6870;50.944;6.932;2024-03-02T14:20:11;20.60;29.50
7341;DHT22;6870;50.944;6.932;2024-03-02T14:22:40;20.80;29.30
7341;DHT22;6870;50.944;6.932;2024-03-02T14:25:08;20.80;29.50
7341;DHT22;6870;50.944;6.932;2024-03-02T14:27:36;20.90;29.50
7341;DHT22;6870;50.944;6.932;2024-03-02T14:30:12;20.90;29.60
7341;DHT22;6870;50.944;6.932;2024-03-02T14:32:40;20.80;29.80
7341;DHT22;6870;50.944;6.932;2024-03-02T14:35:08;20.90;30.00
7341;DHT22;6870;50.944;6.932;2024-03-02T14:37:38;20.80;30.00
7341;DHT22;6870;50.944;6.932;2024-03-02T14:40:07;21.00;30.10
7341;DHT22;6870;50.944;6.932;2024-03-02T14:42:36;20.50;29.90
7341;DHT22;6870;50.944;6.932;2024-03-02T14:45:05;20.80;29.70
7341;DHT22;6870;50.944;6.932;2024-03-02T14:47:34;20.60;29.90
7341;DHT22;6870;50.944;6.932;2024-03-02T14:50:03;20.90;29.80
7341;DHT22;6870;50.944;6.932;2024-03-02T14:52:32;20.80;30.20
7341;DHT22;6870;50.944;6.932;2024-03-02T14:55:01;20.40;30.50
7341;DHT22;6870;50.944;6.932;2024-03-02T14:57:30;20.70;29.90
7341;DHT22;6870;50.944;6.932;2024-03-02T14:59:58;20.60;29.80
7341;DHT22;6870;50.944;6.932;2024-03-02T15:02:26;20.70;29.90
7341;DHT22;6870;50.944;6.932;2024-03-02T15:04:56;20.60;30.10
7341;DHT22;6870;50.944;6.932;2024-03-02T15:07:24;20.80;30.40
7341;DHT22;6870;50.944;6.932;2024-03-02T15:09:52;20.50;30.00
7341;DHT22;6870;50.944;6.932;2024-03-02T15:12:21;20.60;30.10
7341;DHT22;6870;50.944;6.932;2024-03-02T15:14:49;20.90;30.10
7341;DHT22;6870;50.944;6.932;2024-03-02T15:17:17;21.20;30.50
7341;DHT22;6870;50.944;6.932;2024-03-02T15:19:46;20.90;30.00
7341;DHT22;6870;50.944;6.932;2024-03-02T15:22:15;21.10;30.70
7341;DHT22;6870;50.944;6.932;2024-03-02T15:24:43;21.00;31.90
7341;DHT22;6870;50.944;6.932;2024-03-02T15:27:11;21.00;30.50
7341;DHT22;6870;50.944;6.932;2024-03-02T15:29:39;20.90;30.50
7341;DHT22;6870;50.944;6.932;2024-03-02T15:32:08;21.10;30.90
7341;DHT22;6870;50.944;6.932;2024-03-02T15:34:35;21.00;30.70
7341;DHT22;6870;50.944;6.932;2024-03-02T15:37:04;21.00;30.90
7341;DHT22;6870;50.944;6.932;2024-03-02T15:39:33;20.70;31.00
7341;DHT22;6870;50.944;6.932;2024-03-02T15:42:02;21.00;31.00
7341;DHT22;6870;50.944;6.932;2024-03-02T15:44:31;20.70;30.60
7341;DHT22;6870;50.944;6.932;2024-03-02T15:46:59;21.00;31.10
7341;DHT22;6870;50.944;6.932;2024-03-02T15:49:27;20.80;30.50
7341;DHT22;6870;50.944;6.932;2024-03-02T15:51:55;20.80;30.80
7341;DHT22;6870;50.944;6.932;2024-03-02T15:54:27;21.00;31.00
7341;DHT22;6870;50.944;6.932;2024-03-02T15:56:56;20.90;31.10
7341;DHT22;6870;50.944;6.932;2024-03-02T15:59:24;20.90;31.30
7341;DHT22;6870;50.944;6.932;2024-03-02T16:01:52;20.60;30.90
7341;DHT22;6870;50.944;6.932;2024-03-02T16:04:20;20.70;31.10
7341;DHT22;6870;50.944;6.932;2024-03-02T16:06:48;20.90;31.50
7341;DHT22;6870;50.944;6.932;2024-03-02T16:09:16;20.80;31.50
7341;DHT22;6870;50.944;6.932;2024-03-02T16:11:44;20.60;31.40
7341;DHT22;6870;50.944;6.932;2024-03-02T16:14:15;20.80;31.50